createdAt,value
2018-07-25T00:00:33.355Z,98471.16
2018-07-25T00:03:01.205Z,98469.48
2018-07-25T00:05:29.059Z,98468.66
2018-07-25T00:07:57.257Z,98464.97
2018-07-25T00:10:30.364Z,98461.30
2018-07-25T00:12:58.208Z,98460.28
2018-07-25T00:15:26.024Z,98457.27
2018-07-25T00:17:53.879Z,98461.30
2018-07-25T00:20:21.816Z,98456.11
2018-07-25T00:22:49.727Z,98450.59
2018-07-25T00:25:17.646Z,98450.42
2018-07-25T00:27:45.650Z,98448.95
2018-07-25T00:30:13.545Z,98446.64
2018-07-25T00:32:41.328Z,98448.01
2018-07-25T00:35:09.495Z,98440.98
2018-07-25T00:37:37.292Z,98438.98
2018-07-25T00:40:05.201Z,98439.52
2018-07-25T00:42:33.049Z,98434.19
2018-07-25T00:45:01.066Z,98437.39
2018-07-25T00:47:28.878Z,98433.73
2018-07-25T00:49:56.850Z,98436.07
2018-07-25T00:52:24.761Z,98431.20
2018-07-25T00:54:56.163Z,98427.67
2018-07-25T00:57:24.076Z,98427.16
2018-07-25T00:59:52.014Z,98430.21
2018-07-25T01:02:20.490Z,98428.89
2018-07-25T01:04:48.280Z,98421.45
2018-07-25T01:07:16.242Z,98420.95
2018-07-25T01:09:44.127Z,98422.97
2018-07-25T01:12:11.934Z,98423.64
2018-07-25T01:14:39.947Z,98418.63
2018-07-25T01:17:08.125Z,98425.17
2018-07-25T01:19:36.048Z,98421.33
2018-07-25T01:22:03.939Z,98421.33
2018-07-25T01:24:32.414Z,98425.55
2018-07-25T01:27:01.467Z,98420.73
2018-07-25T01:29:29.287Z,98413.65
2018-07-25T01:31:57.338Z,98417.53
2018-07-25T01:34:25.238Z,98422.09
2018-07-25T01:36:53.084Z,98417.79
2018-07-25T01:39:21.639Z,98416.45
2018-07-25T01:41:49.445Z,98424.19
2018-07-25T01:44:17.376Z,98411.41
2018-07-25T01:46:45.850Z,98409.41
2018-07-25T01:49:13.700Z,98413.27
2018-07-25T01:51:41.603Z,98420.50
2018-07-25T01:54:10.844Z,98423.23
2018-07-25T01:56:38.743Z,98425.55
2018-07-25T01:59:06.553Z,98420.82
2018-07-25T02:01:34.553Z,98422.49
2018-07-25T02:04:02.448Z,98425.53
2018-07-25T02:06:30.244Z,98419.98
2018-07-25T02:08:58.246Z,98424.20
2018-07-25T02:11:26.003Z,98429.13
2018-07-25T02:13:53.789Z,98427.78
2018-07-25T02:16:22.240Z,98437.89
2018-07-25T02:18:50.116Z,98433.48
2018-07-25T02:21:17.982Z,98433.69
2018-07-25T02:23:46.171Z,98437.73
2018-07-25T02:26:13.968Z,98430.86
2018-07-25T02:28:41.830Z,98437.27
2018-07-25T02:31:09.977Z,98438.80
2018-07-25T02:33:45.274Z,98437.82
2018-07-25T02:36:13.110Z,98436.15
2018-07-25T02:38:40.914Z,98442.04
2018-07-25T02:41:08.726Z,98443.86
2018-07-25T02:43:36.624Z,98446.55
2018-07-25T02:46:04.895Z,98447.56
2018-07-25T02:48:32.757Z,98454.28
2018-07-25T02:51:01.721Z,98455.30
2018-07-25T02:53:29.547Z,98454.62
2018-07-25T02:55:57.333Z,98452.10
2018-07-25T02:58:25.219Z,98455.25
2018-07-25T03:00:53.055Z,98452.94
2018-07-25T03:03:20.861Z,98449.73
2018-07-25T03:05:48.993Z,98450.25
2018-07-25T03:08:16.816Z,98455.30
2018-07-25T03:10:49.941Z,98454.30
2018-07-25T03:13:17.798Z,98455.63
2018-07-25T03:15:45.930Z,98464.34
2018-07-25T03:18:13.885Z,98463.51
2018-07-25T03:20:41.748Z,98459.75
2018-07-25T03:23:09.602Z,98463.28
2018-07-25T03:25:37.537Z,98464.80
2018-07-25T03:28:05.435Z,98467.44
2018-07-25T03:30:33.190Z,98462.24
2018-07-25T03:33:01.183Z,98475.65
2018-07-25T03:35:29.108Z,98472.95
2018-07-25T03:37:57.252Z,98480.69
2018-07-25T03:40:25.527Z,98475.95
2018-07-25T03:42:53.353Z,98475.91
2018-07-25T03:45:21.304Z,98477.05
2018-07-25T03:47:49.639Z,98475.80
2018-07-25T03:50:17.592Z,98487.19
2018-07-25T03:52:45.535Z,98484.94
2018-07-25T03:55:13.468Z,98482.00
2018-07-25T03:57:41.438Z,98486.64
2018-07-25T04:00:10.165Z,98490.55
2018-07-25T04:02:38.405Z,98483.28
2018-07-25T04:05:07.084Z,98493.86
2018-07-25T04:07:34.951Z,98492.73
2018-07-25T04:10:04.218Z,98493.16
2018-07-25T04:12:32.051Z,98496.30
2018-07-25T04:15:00.057Z,98497.76
2018-07-25T04:17:32.487Z,98496.00
2018-07-25T04:20:00.436Z,98493.19
2018-07-25T04:22:28.304Z,98498.58
2018-07-25T04:24:56.307Z,98495.27
2018-07-25T04:27:24.203Z,98501.41
2018-07-25T04:29:52.116Z,98499.99
2018-07-25T04:32:20.379Z,98499.16
2018-07-25T04:34:48.270Z,98488.56
2018-07-25T04:37:16.171Z,98492.13
2018-07-25T04:39:45.092Z,98500.02
2018-07-25T04:42:13.032Z,98490.64
2018-07-25T04:44:40.839Z,98496.88
2018-07-25T04:47:08.754Z,98493.56
2018-07-25T04:49:36.674Z,98487.66
2018-07-25T04:52:04.473Z,98493.25
2018-07-25T04:54:32.446Z,98497.25
2018-07-25T04:57:00.395Z,98494.72
2018-07-25T04:59:28.163Z,98494.36
2018-07-25T05:01:56.178Z,98497.66
2018-07-25T05:04:24.556Z,98497.92
2018-07-25T05:06:52.344Z,98501.89
2018-07-25T05:09:20.262Z,98499.06
2018-07-25T05:11:49.126Z,98506.64
2018-07-25T05:14:16.995Z,98515.79
2018-07-25T05:16:44.964Z,98513.61
2018-07-25T05:19:12.948Z,98511.09
2018-07-25T05:21:41.293Z,98521.84
2018-07-25T05:24:09.200Z,98515.39
2018-07-25T05:26:38.910Z,98519.98
2018-07-25T05:29:06.870Z,98513.90
2018-07-25T05:31:34.853Z,98514.31
2018-07-25T05:34:02.830Z,98527.88
2018-07-25T05:36:31.006Z,98521.16
2018-07-25T05:38:59.213Z,98524.39
2018-07-25T05:41:27.084Z,98518.27
2018-07-25T05:43:55.071Z,98520.87
2018-07-25T05:46:28.012Z,98525.03
2018-07-25T05:48:55.901Z,98535.55
2018-07-25T05:51:24.058Z,98530.84
2018-07-25T05:53:52.181Z,98542.00
2018-07-25T05:56:20.034Z,98536.17
2018-07-25T05:58:48.135Z,98549.20
2018-07-25T06:01:15.965Z,98542.17
2018-07-25T06:03:43.828Z,98534.70
2018-07-25T06:06:11.832Z,98527.23
2018-07-25T06:08:39.870Z,98533.06
2018-07-25T06:11:07.887Z,98542.06
2018-07-25T06:13:36.732Z,98541.55
2018-07-25T06:16:05.136Z,98545.08
2018-07-25T06:18:32.975Z,98543.72
2018-07-25T06:21:01.294Z,98547.06
2018-07-25T06:23:29.181Z,98542.00
2018-07-25T06:25:57.135Z,98539.55
2018-07-25T06:28:26.508Z,98540.38
2018-07-25T06:30:54.344Z,98536.38
2018-07-25T06:33:22.321Z,98536.03
2018-07-25T06:35:50.782Z,98540.02
2018-07-25T06:38:18.752Z,98537.31
2018-07-25T06:40:46.653Z,98541.16
2018-07-25T06:43:14.672Z,98547.39
2018-07-25T06:45:42.626Z,98547.31
2018-07-25T06:48:10.931Z,98548.22
2018-07-25T06:50:39.108Z,98543.66
2018-07-25T06:53:14.754Z,98544.09
2018-07-25T06:55:42.638Z,98550.65
2018-07-25T06:58:10.636Z,98552.64
2018-07-25T07:00:38.577Z,98557.31
2018-07-25T07:03:06.461Z,98554.59
2018-07-25T07:05:34.243Z,98552.44
2018-07-25T07:08:02.172Z,98553.78
2018-07-25T07:10:30.147Z,98559.83
2018-07-25T07:12:58.095Z,98558.25
2018-07-25T07:15:25.973Z,98562.97
2018-07-25T07:17:54.284Z,98567.64
2018-07-25T07:20:22.292Z,98563.80
2018-07-25T07:22:50.268Z,98563.08
2018-07-25T07:25:18.312Z,98564.84
2018-07-25T07:27:46.134Z,98564.33
2018-07-25T07:30:14.003Z,98564.45
2018-07-25T07:32:41.900Z,98567.36
2018-07-25T07:35:09.877Z,98577.69
2018-07-25T07:37:37.827Z,98564.08
2018-07-25T07:40:06.271Z,98572.68
2018-07-25T07:42:34.203Z,98573.44
2018-07-25T07:45:02.176Z,98569.68
2018-07-25T07:47:30.478Z,98578.47
2018-07-25T07:49:58.335Z,98582.72
2018-07-25T07:52:26.176Z,98580.22
2018-07-25T07:54:54.329Z,98580.34
2018-07-25T07:57:22.195Z,98577.97
2018-07-25T07:59:50.098Z,98577.11
2018-07-25T08:02:18.358Z,98576.80
2018-07-25T08:04:46.223Z,98578.31
2018-07-25T08:07:14.089Z,98585.18
2018-07-25T08:09:42.003Z,98582.03
2018-07-25T08:12:09.772Z,98576.44
2018-07-25T08:14:38.094Z,98593.16
2018-07-25T08:17:07.856Z,98587.40
2018-07-25T08:19:36.514Z,98586.56
2018-07-25T08:22:04.556Z,98586.32
2018-07-25T08:24:32.475Z,98590.11
2018-07-25T08:27:00.526Z,98584.44
2018-07-25T08:29:28.493Z,98586.77
2018-07-25T08:31:56.529Z,98585.41
2018-07-25T08:34:24.403Z,98584.27
2018-07-25T08:36:52.327Z,98583.58
2018-07-25T08:39:21.047Z,98582.75
2018-07-25T08:41:49.081Z,98590.44
2018-07-25T08:44:16.891Z,98587.69
2018-07-25T08:46:45.238Z,98584.13
2018-07-25T08:49:13.156Z,98587.22
2018-07-25T08:51:41.016Z,98589.78
2018-07-25T08:54:08.921Z,98584.81
2018-07-25T08:56:36.871Z,98584.84
2018-07-25T08:59:04.902Z,98583.45
2018-07-25T09:01:33.190Z,98582.73
2018-07-25T09:04:01.056Z,98584.61
2018-07-25T09:06:29.445Z,98582.50
2018-07-25T09:08:57.430Z,98577.45
2018-07-25T09:11:25.958Z,98585.68
2018-07-25T09:13:53.979Z,98578.55
2018-07-25T09:16:22.119Z,98571.67
2018-07-25T09:18:50.831Z,98573.43
2018-07-25T09:21:18.682Z,98572.73
2018-07-25T09:23:47.992Z,98567.34
2018-07-25T09:26:15.840Z,98570.09
2018-07-25T09:28:43.716Z,98562.81
2018-07-25T09:31:11.815Z,98562.72
2018-07-25T09:33:39.654Z,98562.39
2018-07-25T09:36:07.605Z,98557.72
2018-07-25T09:38:35.648Z,98555.53
2018-07-25T09:41:03.764Z,98550.80
2018-07-25T09:43:31.695Z,98550.55
2018-07-25T09:45:59.935Z,98547.87
2018-07-25T09:48:27.773Z,98539.61
2018-07-25T09:50:55.603Z,98542.31
2018-07-25T09:53:23.869Z,98532.68
2018-07-25T09:55:54.009Z,98535.79
2018-07-25T09:58:21.943Z,98531.91
2018-07-25T10:00:51.254Z,98526.83
2018-07-25T10:03:19.736Z,98529.13
2018-07-25T10:05:47.784Z,98532.48
2018-07-25T10:08:17.114Z,98533.32
2018-07-25T10:10:45.412Z,98536.22
2018-07-25T10:13:13.601Z,98524.95
2018-07-25T10:15:41.572Z,98523.88
2018-07-25T10:18:09.620Z,98525.53
2018-07-25T10:20:37.600Z,98525.52
2018-07-25T10:23:05.496Z,98519.25
2018-07-25T10:25:33.398Z,98517.33
2018-07-25T10:28:01.381Z,98515.61
2018-07-25T10:30:29.435Z,98507.31
2018-07-25T10:32:57.523Z,98513.92
2018-07-25T10:35:25.319Z,98513.13
2018-07-25T10:37:53.275Z,98503.52
2018-07-25T10:40:21.199Z,98505.66
2018-07-25T10:42:49.045Z,98502.88
2018-07-25T10:45:16.958Z,98499.91
2018-07-25T10:47:44.801Z,98492.56
2018-07-25T10:50:12.776Z,98495.99
2018-07-25T10:52:41.505Z,98496.35
2018-07-25T10:55:09.260Z,98502.42
2018-07-25T10:57:37.162Z,98501.84
2018-07-25T11:00:06.432Z,98497.13
2018-07-25T11:02:34.468Z,98503.95
2018-07-25T11:05:02.374Z,98502.48
2018-07-25T11:07:30.709Z,98505.54
2018-07-25T11:09:58.640Z,98493.84
2018-07-25T11:12:26.543Z,98488.89
2018-07-25T11:14:54.596Z,98488.94
2018-07-25T11:17:23.311Z,98485.20
2018-07-25T11:19:51.106Z,98477.85
2018-07-25T11:22:18.996Z,98475.86
2018-07-25T11:24:46.859Z,98473.58
2018-07-25T11:27:14.766Z,98473.34
2018-07-25T11:29:42.805Z,98481.40
2018-07-25T11:32:10.663Z,98474.67
2018-07-25T11:34:38.528Z,98478.42
2018-07-25T11:37:06.590Z,98480.22
2018-07-25T11:39:34.496Z,98477.94
2018-07-25T11:42:02.359Z,98480.92
2018-07-25T11:44:30.218Z,98477.90
2018-07-25T11:46:58.126Z,98482.67
2018-07-25T11:49:25.932Z,98479.80
2018-07-25T11:51:54.139Z,98476.19
2018-07-25T11:54:21.980Z,98472.41
2018-07-25T11:56:49.864Z,98468.97
2018-07-25T11:59:17.971Z,98473.53
2018-07-25T12:01:45.853Z,98476.80
2018-07-25T12:04:13.756Z,98473.95
2018-07-25T12:06:41.698Z,98472.48
2018-07-25T12:09:10.894Z,98476.58
2018-07-25T12:11:44.456Z,98482.61
2018-07-25T12:14:13.440Z,98485.39
2018-07-25T12:16:41.374Z,98495.41
2018-07-25T12:19:09.748Z,98492.36
2018-07-25T12:21:37.711Z,98495.62
2018-07-25T12:24:05.704Z,98487.88
2018-07-25T12:26:33.690Z,98480.82
2018-07-25T12:29:02.693Z,98489.73
2018-07-25T12:31:30.556Z,98488.77
2018-07-25T12:33:58.554Z,98487.94
2018-07-25T12:36:26.490Z,98480.94
2018-07-25T12:38:54.425Z,98477.42
2018-07-25T12:41:22.456Z,98482.10
2018-07-25T12:43:51.357Z,98474.81
2018-07-25T12:46:19.294Z,98478.99
2018-07-25T12:48:47.417Z,98474.16
2018-07-25T12:51:15.383Z,98467.28
2018-07-25T12:53:43.429Z,98470.48
2018-07-25T12:56:11.340Z,98476.30
2018-07-25T12:58:40.162Z,98478.69
2018-07-25T13:01:08.095Z,98481.70
2018-07-25T13:03:36.496Z,98474.23
2018-07-25T13:06:04.508Z,98470.42
2018-07-25T13:08:32.453Z,98464.78
2018-07-25T13:11:00.442Z,98474.48
2018-07-25T13:13:28.258Z,98468.84
2018-07-25T13:15:56.202Z,98466.39
2018-07-25T13:18:24.380Z,98459.84
2018-07-25T13:20:52.252Z,98465.34
2018-07-25T13:23:20.217Z,98460.97
2018-07-25T13:25:48.308Z,98464.36
2018-07-25T13:28:16.200Z,98465.06
2018-07-25T13:30:44.054Z,98465.33
2018-07-25T13:33:12.349Z,98468.76
2018-07-25T13:35:40.174Z,98466.60
2018-07-25T13:38:08.135Z,98475.28
2018-07-25T13:40:36.348Z,98477.39
2018-07-25T13:43:04.196Z,98485.72
2018-07-25T13:45:32.120Z,98476.28
2018-07-25T13:48:00.209Z,98474.98
2018-07-25T13:50:28.249Z,98479.42
2018-07-25T13:52:56.110Z,98477.91
2018-07-25T13:55:24.444Z,98473.91
2018-07-25T13:57:53.307Z,98472.84
2018-07-25T14:00:21.171Z,98470.27
2018-07-25T14:02:49.196Z,98466.75
2018-07-25T14:05:17.149Z,98463.39
2018-07-25T14:07:46.194Z,98459.25
2018-07-25T14:10:14.241Z,98455.16
2018-07-25T14:12:42.179Z,98460.72
2018-07-25T14:15:10.152Z,98463.45
2018-07-25T14:17:38.800Z,98466.53
2018-07-25T14:20:06.658Z,98469.63
2018-07-25T14:22:34.628Z,98477.34
2018-07-25T14:25:02.551Z,98464.28
2018-07-25T14:27:30.360Z,98463.16
2018-07-25T14:29:58.245Z,98466.03
2018-07-25T14:32:26.477Z,98464.03
2018-07-25T14:34:54.393Z,98464.42
2018-07-25T14:37:22.245Z,98468.09
2018-07-25T14:39:50.131Z,98476.19
2018-07-25T14:42:18.045Z,98466.56
2018-07-25T14:44:45.879Z,98459.63
2018-07-25T14:47:13.801Z,98453.98
2018-07-25T14:49:41.590Z,98451.88
2018-07-25T14:52:09.658Z,98460.07
2018-07-25T14:54:37.749Z,98454.91
2018-07-25T14:57:05.720Z,98458.69
2018-07-25T14:59:33.722Z,98466.30
2018-07-25T15:02:01.783Z,98458.88
2018-07-25T15:04:29.769Z,98465.20
2018-07-25T15:06:57.715Z,98458.56
2018-07-25T15:09:26.696Z,98455.91
2018-07-25T15:11:54.589Z,98452.89
2018-07-25T15:14:22.498Z,98454.05
2018-07-25T15:16:50.494Z,98463.58
2018-07-25T15:19:18.430Z,98456.77
2018-07-25T15:21:46.208Z,98452.39
2018-07-25T15:24:14.997Z,98458.63
2018-07-25T15:26:42.781Z,98457.07
2018-07-25T15:29:10.735Z,98453.02
2018-07-25T15:31:38.692Z,98457.09
2018-07-25T15:34:06.627Z,98449.44
2018-07-25T15:36:41.320Z,98456.65
2018-07-25T15:39:13.048Z,98456.25
2018-07-25T15:41:41.655Z,98458.25
2018-07-25T15:44:09.487Z,98457.77
2018-07-25T15:46:37.431Z,98463.03
2018-07-25T15:49:05.920Z,98462.45
2018-07-25T15:51:34.019Z,98455.03
2018-07-25T15:54:02.479Z,98455.03
2018-07-25T15:56:30.998Z,98458.64
2018-07-25T15:58:59.051Z,98465.30
2018-07-25T16:01:27.058Z,98461.10
2018-07-25T16:03:55.169Z,98461.86
2018-07-25T16:06:23.431Z,98469.26
2018-07-25T16:08:51.535Z,98464.58
2018-07-25T16:11:19.489Z,98472.45
2018-07-25T16:13:47.669Z,98469.05
2018-07-25T16:16:15.840Z,98464.36
2018-07-25T16:18:44.425Z,98463.64
2018-07-25T16:21:12.449Z,98470.81
2018-07-25T16:23:40.267Z,98476.91
2018-07-25T16:26:08.277Z,98469.87
2018-07-25T16:28:37.284Z,98469.80
2018-07-25T16:31:06.293Z,98472.53
2018-07-25T16:33:34.331Z,98478.86
2018-07-25T16:36:02.203Z,98479.63
2018-07-25T16:38:30.080Z,98485.72
2018-07-25T16:40:58.359Z,98492.08
2018-07-25T16:43:26.366Z,98499.34
2018-07-25T16:45:54.457Z,98506.56
2018-07-25T16:48:22.606Z,98513.04
2018-07-25T16:50:50.424Z,98515.38
2018-07-25T16:53:18.327Z,98508.81
2018-07-25T16:55:46.243Z,98514.08
2018-07-25T16:58:14.210Z,98519.30
2018-07-25T17:00:42.181Z,98521.53
2018-07-25T17:03:10.238Z,98525.27
2018-07-25T17:05:38.310Z,98529.10
2018-07-25T17:08:06.200Z,98520.30
2018-07-25T17:10:34.364Z,98528.48
2018-07-25T17:13:02.428Z,98528.63
2018-07-25T17:15:30.299Z,98525.80
2018-07-25T17:17:58.327Z,98526.12
2018-07-25T17:20:26.249Z,98525.84
2018-07-25T17:22:54.437Z,98528.17
2018-07-25T17:25:22.658Z,98528.50
2018-07-25T17:27:50.450Z,98530.52
2018-07-25T17:30:18.376Z,98535.03
2018-07-25T17:32:46.271Z,98530.70
2018-07-25T17:35:14.167Z,98540.64
2018-07-25T17:37:42.139Z,98539.50
2018-07-25T17:40:10.091Z,98539.20
2018-07-25T17:42:37.944Z,98545.13
2018-07-25T17:45:08.054Z,98543.07
2018-07-25T17:47:36.059Z,98542.38
2018-07-25T17:50:05.216Z,98546.97
2018-07-25T17:52:33.049Z,98552.92
2018-07-25T17:55:00.932Z,98553.14
2018-07-25T17:57:28.924Z,98552.52
2018-07-25T17:59:56.866Z,98558.16
2018-07-25T18:02:24.940Z,98560.97
2018-07-25T18:04:52.766Z,98563.49
2018-07-25T18:07:20.783Z,98562.97
2018-07-25T18:09:49.071Z,98567.74
2018-07-25T18:12:16.945Z,98577.14
2018-07-25T18:14:44.786Z,98588.08
2018-07-25T18:17:12.663Z,98593.11
2018-07-25T18:19:40.591Z,98592.98
2018-07-25T18:22:08.603Z,98607.70
2018-07-25T18:24:37.639Z,98599.68
2018-07-25T18:27:05.682Z,98607.08
2018-07-25T18:29:33.715Z,98613.95
2018-07-25T18:32:02.079Z,98620.06
2018-07-25T18:34:29.904Z,98627.34
2018-07-25T18:36:57.841Z,98628.37
2018-07-25T18:39:26.074Z,98635.99
2018-07-25T18:41:54.002Z,98634.84
2018-07-25T18:44:22.246Z,98638.58
2018-07-25T18:46:50.639Z,98643.05
2018-07-25T18:49:18.552Z,98640.34
2018-07-25T18:51:46.474Z,98644.69
2018-07-25T18:56:52.822Z,98655.11
2018-07-25T18:59:21.120Z,98669.78
2018-07-25T19:01:49.094Z,98674.31
2018-07-25T19:04:17.064Z,98667.50
2018-07-25T19:06:45.167Z,98677.02
2018-07-25T19:09:15.027Z,98682.94
2018-07-25T19:11:43.093Z,98675.13
2018-07-25T19:14:16.437Z,98681.06
2018-07-25T19:16:44.370Z,98680.05
2018-07-25T19:19:12.258Z,98680.94
2018-07-25T19:21:40.404Z,98680.17
2018-07-25T19:24:08.223Z,98689.05
2018-07-25T19:26:36.105Z,98683.97
2018-07-25T19:29:04.204Z,98684.05
2018-07-25T19:31:32.087Z,98685.00
2018-07-25T19:33:59.996Z,98685.58
2018-07-25T19:36:28.997Z,98680.42
2018-07-25T19:38:56.769Z,98683.13
2018-07-25T19:41:24.764Z,98682.18
2018-07-25T19:43:53.065Z,98681.60
2018-07-25T19:46:20.823Z,98679.52
2018-07-25T19:48:48.600Z,98681.52
2018-07-25T19:51:17.022Z,98683.77
2018-07-25T19:53:45.062Z,98678.44
2018-07-25T19:56:12.840Z,98676.17
2018-07-25T19:58:40.699Z,98676.52
2018-07-25T20:01:08.705Z,98673.55
2018-07-25T20:03:36.461Z,98673.23
2018-07-25T20:06:05.292Z,98673.75
2018-07-25T20:08:33.231Z,98676.54
2018-07-25T20:11:01.127Z,98686.28
2018-07-25T20:13:31.208Z,98676.67
2018-07-25T20:16:00.272Z,98682.05
2018-07-25T20:18:29.198Z,98680.66
2018-07-25T20:20:57.777Z,98679.96
2018-07-25T20:23:26.606Z,98678.16
2018-07-25T20:25:54.552Z,98683.48
2018-07-25T20:28:22.745Z,98682.46
2018-07-25T20:30:50.568Z,98673.16
2018-07-25T20:33:18.390Z,98672.38
2018-07-25T20:35:46.314Z,98670.91
2018-07-25T20:38:14.196Z,98672.05
2018-07-25T20:40:42.142Z,98675.06
2018-07-25T20:43:10.145Z,98672.42
2018-07-25T20:45:37.865Z,98674.39
2018-07-25T20:48:05.836Z,98675.89
2018-07-25T20:50:33.983Z,98672.22
2018-07-25T20:53:01.863Z,98683.33
2018-07-25T20:55:29.605Z,98675.89
2018-07-25T20:57:57.614Z,98674.08
2018-07-25T21:00:30.991Z,98674.97
2018-07-25T21:02:59.471Z,98671.84
2018-07-25T21:05:27.339Z,98671.17
2018-07-25T21:07:55.282Z,98673.38
2018-07-25T21:10:23.487Z,98669.53
2018-07-25T21:12:51.368Z,98671.06
2018-07-25T21:15:19.281Z,98672.59
2018-07-25T21:17:47.656Z,98674.27
2018-07-25T21:20:15.596Z,98672.69
2018-07-25T21:22:43.547Z,98673.04
2018-07-25T21:25:11.412Z,98673.53
2018-07-25T21:27:39.305Z,98681.16
2018-07-25T21:30:07.139Z,98679.17
2018-07-25T21:32:35.272Z,98682.27
2018-07-25T21:35:03.236Z,98675.95
2018-07-25T21:37:31.175Z,98683.80
2018-07-25T21:39:59.496Z,98683.21
2018-07-25T21:42:27.462Z,98681.23
2018-07-25T21:44:55.288Z,98676.80
2018-07-25T21:47:23.164Z,98674.30
2018-07-25T21:49:50.935Z,98674.28
2018-07-25T21:52:18.721Z,98680.13
2018-07-25T21:54:47.281Z,98675.55
2018-07-25T21:57:15.187Z,98683.98
2018-07-25T21:59:42.966Z,98681.91
2018-07-25T22:02:11.214Z,98676.45
2018-07-25T22:04:39.180Z,98683.88
2018-07-25T22:07:07.034Z,98681.77
2018-07-25T22:09:35.101Z,98683.77
2018-07-25T22:12:03.044Z,98678.88
2018-07-25T22:14:30.817Z,98676.98
2018-07-25T22:16:59.859Z,98678.98
2018-07-25T22:19:27.734Z,98686.04
2018-07-25T22:21:55.628Z,98678.22
2018-07-25T22:24:23.795Z,98683.21
2018-07-25T22:26:51.635Z,98677.97
2018-07-25T22:29:19.550Z,98674.87
2018-07-25T22:31:47.689Z,98676.06
2018-07-25T22:34:15.565Z,98677.16
2018-07-25T22:36:43.415Z,98675.83
2018-07-25T22:39:11.652Z,98678.70
2018-07-25T22:41:39.510Z,98680.77
2018-07-25T22:44:07.290Z,98685.84
2018-07-25T22:46:35.677Z,98684.34
2018-07-25T22:49:03.592Z,98688.39
2018-07-25T22:51:31.454Z,98686.33
2018-07-25T22:53:59.311Z,98688.97
2018-07-25T22:56:27.131Z,98684.00
2018-07-25T22:58:54.996Z,98681.97
2018-07-25T23:01:23.299Z,98685.95
2018-07-25T23:03:51.111Z,98689.98
2018-07-25T23:06:18.918Z,98696.16
2018-07-25T23:08:47.055Z,98695.50
2018-07-25T23:11:14.998Z,98696.73
2018-07-25T23:13:46.590Z,98697.42
2018-07-25T23:16:15.851Z,98688.04
2018-07-25T23:18:43.851Z,98687.81
2018-07-25T23:21:12.122Z,98692.41
2018-07-25T23:23:39.913Z,98692.08
2018-07-25T23:26:07.706Z,98695.42
2018-07-25T23:28:36.350Z,98694.14
2018-07-25T23:31:04.126Z,98698.50
2018-07-25T23:33:31.919Z,98696.64
2018-07-25T23:36:00.169Z,98698.64
2018-07-25T23:38:28.017Z,98703.52
2018-07-25T23:40:55.843Z,98702.17
2018-07-25T23:43:23.884Z,98705.09
2018-07-25T23:45:51.818Z,98703.94
2018-07-25T23:48:19.611Z,98702.91
2018-07-25T23:50:47.499Z,98703.05
2018-07-25T23:53:15.866Z,98702.22
2018-07-25T23:55:43.683Z,98707.23
2018-07-25T23:58:12.674Z,98705.89
